Time;durP1;ratioP1;P1;durP2;ratioP2;P2;SDS_P1;SDS_P2;PMS_P1;PMS_P2;Temp;Humidity;BMP_temperature;BMP_pressure;BME280_temperature;BME280_humidity;BME280_pressure;Samples;Min_cycle;Max_cycle;Signal;HPM_P1;HPM_P2
2021/09/15 00:02:38;;;;;;;6.60;4.45;;;19.70;99.90;;;;;;12473656;28;20128;-43
2021/09/15 00:08:46;;;;;;;8.05;4.50;;;19.70;99.90;;;;;;12484082;28;20045;-37
2021/09/15 00:14:52;;;;;;;6.20;4.82;;;19.70;99.90;;;;;;12491523;28;20547;-37
2021/09/15 00:20:59;;;;;;;6.25;4.38;;;19.80;99.90;;;;;;12482468;28;20415;-43
2021/09/15 00:27:05;;;;;;;7.75;4.80;;;19.80;99.90;;;;;;12485861;28;20419;-42
2021/09/15 00:33:14;;;;;;;11.55;4.65;;;19.70;99.90;;;;;;12478763;28;20046;-37
2021/09/15 00:39:39;;;;;;;5.70;5.00;;;19.70;99.90;;;;;;12475623;28;20060;-38
2021/09/15 00:45:57;;;;;;;7.53;4.53;;;19.60;99.90;;;;;;12458850;28;20094;-42
2021/09/15 00:52:16;;;;;;;7.07;4.88;;;19.70;99.90;;;;;;12479446;28;20099;-41
2021/09/15 00:58:19;;;;;;;6.75;4.72;;;19.70;99.90;;;;;;12477078;28;20404;-37
2021/09/15 01:04:35;;;;;;;5.88;4.75;;;19.60;99.90;;;;;;12518194;28;20056;-42
2021/09/15 01:10:47;;;;;;;6.55;4.68;;;19.70;99.90;;;;;;12519590;28;20055;-37
2021/09/15 01:16:59;;;;;;;5.13;4.32;;;19.70;99.90;;;;;;12509610;28;20053;-42
2021/09/15 01:23:12;;;;;;;7.68;5.20;;;19.80;99.90;;;;;;12525641;28;20094;-42
2021/09/15 01:29:30;;;;;;;7.95;4.90;;;19.80;99.90;;;;;;12531147;28;20084;-37
2021/09/15 01:35:43;;;;;;;6.63;4.45;;;19.70;99.90;;;;;;12531033;28;20060;-37
2021/09/15 01:41:58;;;;;;;8.38;4.75;;;19.70;99.90;;;;;;12525981;28;20077;-37
2021/09/15 01:48:05;;;;;;;6.07;4.20;;;19.80;99.90;;;;;;12527570;28;20397;-37
2021/09/15 01:54:14;;;;;;;7.68;4.70;;;19.80;99.90;;;;;;12526240;28;20181;-45
2021/09/15 02:00:26;;;;;;;8.13;4.50;;;19.80;99.90;;;;;;12526856;28;20053;-37
2021/09/15 02:06:34;;;;;;;8.75;4.90;;;19.80;99.90;;;;;;12524805;28;20053;-42
2021/09/15 02:12:43;;;;;;;5.78;4.45;;;19.70;99.90;;;;;;12527748;28;20049;-43
2021/09/15 02:19:06;;;;;;;6.38;5.18;;;19.60;99.90;;;;;;12517850;28;20930;-38
2021/09/15 02:25:12;;;;;;;7.07;4.80;;;19.60;99.90;;;;;;12520363;28;20061;-42
2021/09/15 02:31:17;;;;;;;6.50;4.97;;;19.50;99.90;;;;;;12523819;28;20060;-42
2021/09/15 02:37:22;;;;;;;7.25;5.13;;;19.60;99.90;;;;;;12524194;28;20056;-42
2021/09/15 02:43:27;;;;;;;8.40;4.90;;;19.50;99.90;;;;;;12520117;28;20053;-42
2021/09/15 02:49:37;;;;;;;10.20;5.13;;;19.50;99.90;;;;;;12520329;28;20075;-43
2021/09/15 02:55:46;;;;;;;7.75;5.65;;;19.70;99.90;;;;;;12522886;28;20057;-39
2021/09/15 03:01:52;;;;;;;8.93;5.68;;;19.60;99.90;;;;;;12520856;28;20659;-42
2021/09/15 03:08:01;;;;;;;8.38;5.80;;;19.40;99.90;;;;;;12525494;28;20057;-42
2021/09/15 03:14:10;;;;;;;6.65;5.85;;;19.30;99.90;;;;;;12511770;28;20037;-37
2021/09/15 03:20:17;;;;;;;7.15;5.53;;;19.10;99.90;;;;;;12503747;28;20064;-42
2021/09/15 03:26:28;;;;;;;8.82;5.70;;;18.90;99.90;;;;;;12524457;28;20080;-42
2021/09/15 03:32:39;;;;;;;7.60;5.82;;;19.00;99.90;;;;;;12517460;28;20045;-43
2021/09/15 03:39:02;;;;;;;8.68;6.40;;;19.20;99.90;;;;;;12520616;28;20063;-43
2021/09/15 03:45:15;;;;;;;8.98;6.15;;;19.20;99.90;;;;;;12523928;28;20430;-37
2021/09/15 03:51:41;;;;;;;8.45;5.28;;;19.20;99.90;;;;;;12508312;28;20049;-37
2021/09/15 03:58:02;;;;;;;8.05;5.40;;;19.20;99.90;;;;;;12523343;28;20057;-44
2021/09/15 04:04:15;;;;;;;8.40;5.63;;;19.20;99.90;;;;;;12511388;28;20052;-43
2021/09/15 04:10:23;;;;;;;8.40;5.55;;;19.20;99.90;;;;;;12522780;28;20062;-37
2021/09/15 04:16:36;;;;;;;7.28;5.10;;;19.20;99.90;;;;;;12519787;28;20061;-43
2021/09/15 04:22:42;;;;;;;7.07;5.00;;;19.30;99.90;;;;;;12528184;28;20041;-37
2021/09/15 04:35:13;;;;;;;8.85;5.95;;;19.20;99.90;;;;;;12517863;28;20060;-42
2021/09/15 04:41:26;;;;;;;9.82;5.95;;;19.30;99.90;;;;;;12531077;28;20048;-37
2021/09/15 04:47:32;;;;;;;11.07;6.60;;;19.30;99.90;;;;;;12525622;28;20049;-42
2021/09/15 04:53:34;;;;;;;7.57;5.82;;;19.00;99.90;;;;;;12522065;28;20099;-43
2021/09/15 04:59:36;;;;;;;8.45;6.30;;;18.90;99.90;;;;;;12524087;28;20048;-37
2021/09/15 05:05:38;;;;;;;8.35;5.97;;;18.50;99.90;;;;;;12524028;28;20844;-37
2021/09/15 05:11:40;;;;;;;11.73;6.28;;;18.40;99.90;;;;;;12525206;28;20048;-42
2021/09/15 05:17:42;;;;;;;8.32;6.13;;;18.40;99.90;;;;;;12528312;28;20041;-37
2021/09/15 05:23:44;;;;;;;7.15;6.38;;;18.30;99.90;;;;;;12528053;28;20512;-37
2021/09/15 05:29:46;;;;;;;8.30;6.63;;;18.50;99.90;;;;;;12524456;28;20045;-37
2021/09/15 05:35:49;;;;;;;9.33;6.83;;;18.50;99.90;;;;;;12523349;28;20426;-37
2021/09/15 05:41:51;;;;;;;9.77;6.97;;;18.40;99.90;;;;;;12524442;28;20041;-37
2021/09/15 05:47:54;;;;;;;12.10;8.20;;;18.40;99.90;;;;;;12524030;28;20049;-37
2021/09/15 05:53:56;;;;;;;8.95;7.88;;;18.40;99.90;;;;;;12525293;28;20057;-38
2021/09/15 06:00:02;;;;;;;9.95;8.20;;;18.50;99.90;;;;;;12501503;28;20130;-43
2021/09/15 06:06:05;;;;;;;9.98;7.97;;;18.50;99.90;;;;;;12525121;28;20052;-37
2021/09/15 06:12:07;;;;;;;11.88;8.25;;;18.50;99.90;;;;;;12519912;28;20044;-37
2021/09/15 06:18:09;;;;;;;12.82;8.50;;;18.30;99.90;;;;;;12522310;28;20045;-38
2021/09/15 06:24:13;;;;;;;14.38;9.00;;;18.20;99.90;;;;;;12522104;28;20045;-42
2021/09/15 06:30:15;;;;;;;11.15;8.30;;;18.00;99.90;;;;;;12521791;28;20056;-39
2021/09/15 06:36:19;;;;;;;10.05;8.30;;;18.10;99.90;;;;;;12524450;28;20060;-42
2021/09/15 06:42:22;;;;;;;10.60;9.15;;;18.30;99.90;;;;;;12521227;28;20869;-37
2021/09/15 06:48:27;;;;;;;11.15;9.63;;;18.30;99.90;;;;;;12522189;28;20094;-43
2021/09/15 06:54:29;;;;;;;10.88;8.35;;;18.30;99.90;;;;;;12521114;28;20037;-37
2021/09/15 07:00:31;;;;;;;13.80;9.68;;;18.40;99.90;;;;;;12520101;28;20628;-42
2021/09/15 07:06:34;;;;;;;11.23;9.20;;;18.40;99.90;;;;;;12524566;28;20471;-38
2021/09/15 07:12:38;;;;;;;11.85;9.13;;;18.50;99.90;;;;;;12516937;28;20593;-37
2021/09/15 07:18:42;;;;;;;13.88;10.20;;;18.50;99.90;;;;;;12519637;28;20052;-37
2021/09/15 07:24:46;;;;;;;12.45;9.60;;;18.50;99.90;;;;;;12520580;28;20053;-43
2021/09/15 07:30:49;;;;;;;11.30;8.93;;;18.40;99.90;;;;;;12519750;28;20126;-42
2021/09/15 07:36:51;;;;;;;13.45;9.68;;;18.50;99.90;;;;;;12517305;28;20045;-40
2021/09/15 07:42:54;;;;;;;11.90;9.88;;;18.60;99.90;;;;;;12522320;28;20091;-38
2021/09/15 07:48:55;;;;;;;12.80;10.20;;;18.60;99.90;;;;;;12511366;28;20117;-37
2021/09/15 07:54:57;;;;;;;11.43;9.57;;;18.60;99.90;;;;;;12522520;28;20521;-38
2021/09/15 08:00:59;;;;;;;9.38;8.02;;;18.60;99.90;;;;;;12527394;28;20052;-38
2021/09/15 08:07:02;;;;;;;16.33;10.43;;;18.70;99.90;;;;;;12530523;28;20049;-37
2021/09/15 08:13:04;;;;;;;13.40;11.23;;;18.60;99.90;;;;;;12526536;28;20053;-43
2021/09/15 08:19:05;;;;;;;13.40;11.32;;;18.60;99.90;;;;;;12528528;28;20068;-43
2021/09/15 08:25:13;;;;;;;14.23;11.80;;;18.60;99.90;;;;;;12526075;28;20141;-42
2021/09/15 08:31:16;;;;;;;15.07;13.00;;;18.50;99.90;;;;;;12526742;28;20041;-38
2021/09/15 08:37:18;;;;;;;17.57;13.13;;;18.60;99.90;;;;;;12527387;28;20056;-37
2021/09/15 08:43:20;;;;;;;14.55;12.00;;;18.70;99.90;;;;;;12526690;28;20506;-37
2021/09/15 08:49:23;;;;;;;16.20;13.15;;;18.80;99.90;;;;;;12524562;28;20091;-37
2021/09/15 08:55:26;;;;;;;16.60;12.43;;;19.10;99.90;;;;;;12523210;28;20122;-38
2021/09/15 09:01:28;;;;;;;15.40;11.50;;;19.20;99.90;;;;;;12526007;28;20111;-37
2021/09/15 09:07:31;;;;;;;17.02;14.48;;;19.40;99.90;;;;;;12525471;28;20132;-43
2021/09/15 09:13:35;;;;;;;;;;;19.50;99.90;;;;;;12528507;28;20045;-39
2021/09/15 09:19:37;;;;;;;17.95;14.50;;;19.60;99.90;;;;;;12507193;28;19936;-43
2021/09/15 09:25:56;;;;;;;19.30;15.40;;;19.60;99.90;;;;;;12524427;28;20121;-37
2021/09/15 09:32:15;;;;;;;19.83;15.93;;;19.60;99.90;;;;;;12523999;28;20053;-42
2021/09/15 09:38:28;;;;;;;19.05;15.48;;;19.70;99.90;;;;;;12523470;28;20057;-43
2021/09/15 09:44:30;;;;;;;18.17;16.17;;;19.80;99.90;;;;;;12526238;28;20070;-38
2021/09/15 09:50:33;;;;;;;18.27;15.43;;;19.90;99.90;;;;;;12520730;28;20102;-38
2021/09/15 09:56:36;;;;;;;18.05;15.00;;;19.90;99.90;;;;;;12527353;28;20052;-42
2021/09/15 10:02:38;;;;;;;23.83;16.92;;;19.80;99.90;;;;;;12519859;28;20093;-38
2021/09/15 10:08:40;;;;;;;21.08;16.63;;;19.70;99.90;;;;;;12520888;28;20486;-43
2021/09/15 10:14:42;;;;;;;23.23;17.88;;;19.50;99.90;;;;;;12519800;28;20048;-42
2021/09/15 10:20:53;;;;;;;21.08;16.92;;;19.50;99.90;;;;;;12522235;28;20041;-37
2021/09/15 10:26:59;;;;;;;20.73;15.35;;;19.50;99.90;;;;;;12523881;28;20140;-37
2021/09/15 10:33:01;;;;;;;21.15;16.23;;;19.60;99.90;;;;;;12521938;28;20045;-42
2021/09/15 10:39:04;;;;;;;20.35;15.63;;;19.70;99.90;;;;;;12521627;28;20470;-43
2021/09/15 10:45:20;;;;;;;21.05;16.25;;;19.80;99.90;;;;;;12499455;28;20099;-43
2021/09/15 10:51:23;;;;;;;24.50;16.63;;;19.90;99.90;;;;;;12520071;28;20057;-43
2021/09/15 10:57:27;;;;;;;19.92;16.85;;;20.00;99.90;;;;;;12522636;28;20097;-43
2021/09/15 11:03:40;;;;;;;19.25;15.70;;;20.10;99.90;;;;;;12520952;28;20090;-38
2021/09/15 11:09:56;;;;;;;16.13;14.32;;;20.10;99.90;;;;;;12520214;28;20045;-43
2021/09/15 11:16:27;;;;;;;17.35;15.00;;;20.10;99.90;;;;;;12521409;28;20114;-43
2021/09/15 11:22:34;;;;;;;20.63;14.80;;;20.00;99.90;;;;;;12523571;28;20044;-37
2021/09/15 11:28:37;;;;;;;17.13;13.68;;;20.00;99.90;;;;;;12517379;28;20049;-37
2021/09/15 11:34:42;;;;;;;15.32;13.73;;;19.90;99.90;;;;;;12520900;28;20102;-43
2021/09/15 11:40:44;;;;;;;18.17;14.68;;;20.00;99.90;;;;;;12517084;28;20401;-38
2021/09/15 11:46:46;;;;;;;18.45;14.15;;;20.00;99.90;;;;;;12516664;28;20205;-43
2021/09/15 11:52:55;;;;;;;18.75;13.50;;;20.00;99.90;;;;;;12519394;28;21134;-38
2021/09/15 11:58:58;;;;;;;16.10;10.55;;;20.10;99.90;;;;;;12517751;28;20057;-43
2021/09/15 12:05:00;;;;;;;13.30;9.55;;;20.20;99.90;;;;;;12519697;28;20098;-38
2021/09/15 12:11:03;;;;;;;12.70;9.23;;;20.30;99.90;;;;;;12518780;28;20843;-38
2021/09/15 12:17:06;;;;;;;9.73;7.38;;;20.30;99.90;;;;;;12504066;28;20056;-45
2021/09/15 12:23:10;;;;;;;11.85;6.85;;;20.20;99.90;;;;;;12517334;28;20061;-37
2021/09/15 12:29:16;;;;;;;7.68;5.80;;;20.10;99.90;;;;;;12521366;28;20053;-42
2021/09/15 12:35:33;;;;;;;9.50;6.18;;;20.10;99.90;;;;;;12518273;28;20860;-42
2021/09/15 12:41:56;;;;;;;7.68;6.22;;;20.00;99.90;;;;;;12521540;28;20104;-39
2021/09/15 12:48:00;;;;;;;9.10;5.33;;;19.90;99.90;;;;;;12525923;28;20151;-41
2021/09/15 12:54:05;;;;;;;10.25;6.97;;;19.80;99.90;;;;;;12524868;28;20049;-37
2021/09/15 13:00:27;;;;;;;13.45;9.48;;;19.90;99.90;;;;;;12527425;28;20051;-42
2021/09/15 13:06:29;;;;;;;11.68;6.60;;;19.90;99.90;;;;;;12527881;28;20497;-39
2021/09/15 13:12:34;;;;;;;13.00;6.72;;;19.70;99.90;;;;;;12526280;28;20049;-42
2021/09/15 13:18:37;;;;;;;9.23;6.97;;;19.60;99.90;;;;;;12526172;28;20045;-38
2021/09/15 13:24:40;;;;;;;13.57;6.63;;;19.50;99.90;;;;;;12527665;28;20102;-43
2021/09/15 13:30:43;;;;;;;10.98;7.50;;;19.50;99.90;;;;;;12525413;28;20098;-38
2021/09/15 13:36:45;;;;;;;10.88;6.85;;;19.60;99.90;;;;;;12527664;28;20059;-38
2021/09/15 13:42:47;;;;;;;11.00;7.25;;;19.60;99.90;;;;;;12526874;28;20049;-38
2021/09/15 13:48:50;;;;;;;11.55;6.50;;;19.60;99.90;;;;;;12527413;28;20569;-37
2021/09/15 13:54:51;;;;;;;9.88;6.18;;;19.60;99.90;;;;;;12524938;28;20044;-37
2021/09/15 14:00:53;;;;;;;9.68;7.32;;;19.50;99.90;;;;;;12522254;28;20053;-37
2021/09/15 14:06:56;;;;;;;10.93;7.22;;;19.40;99.90;;;;;;12522902;28;20064;-37
2021/09/15 14:12:58;;;;;;;10.35;9.25;;;19.40;99.90;;;;;;12522074;28;20060;-38
2021/09/15 14:19:01;;;;;;;12.45;9.43;;;19.30;99.90;;;;;;12525256;28;20590;-43
2021/09/15 14:25:03;;;;;;;14.90;11.55;;;19.30;99.90;;;;;;12521662;28;20131;-38
2021/09/15 14:31:06;;;;;;;15.40;12.10;;;19.40;99.90;;;;;;12524817;28;20072;-43
2021/09/15 14:37:08;;;;;;;16.13;14.43;;;19.40;99.90;;;;;;12523727;28;20071;-43
2021/09/15 14:43:10;;;;;;;16.67;14.32;;;19.30;99.90;;;;;;12504844;28;20064;-42
2021/09/15 14:49:13;;;;;;;18.40;16.35;;;19.40;99.90;;;;;;12521794;28;20049;-37
2021/09/15 14:55:22;;;;;;;21.23;17.60;;;19.40;99.90;;;;;;12493417;28;20502;-39
2021/09/15 15:01:29;;;;;;;20.70;18.50;;;19.40;99.90;;;;;;12485727;28;20466;-37
2021/09/15 15:07:31;;;;;;;22.08;17.00;;;19.40;99.90;;;;;;12519482;28;20056;-38
2021/09/15 15:13:34;;;;;;;19.27;15.65;;;19.50;99.90;;;;;;12521512;28;20053;-38
2021/09/15 15:19:36;;;;;;;18.33;16.35;;;19.70;99.90;;;;;;12518228;28;20076;-37
2021/09/15 15:25:39;;;;;;;17.80;15.90;;;19.80;99.90;;;;;;12518181;28;20045;-39
2021/09/15 15:31:43;;;;;;;16.88;15.18;;;19.90;99.90;;;;;;12521554;28;20502;-43
2021/09/15 15:37:48;;;;;;;16.20;13.75;;;20.00;99.90;;;;;;12499218;28;20073;-37
2021/09/15 15:43:51;;;;;;;17.02;13.45;;;20.00;99.90;;;;;;12513391;28;20152;-38
2021/09/15 15:49:55;;;;;;;;;;;20.00;99.90;;;;;;12518044;28;20067;-37
2021/09/15 15:55:57;;;;;;;11.25;10.07;;;20.10;99.90;;;;;;12519644;28;19925;-43
2021/09/15 16:02:05;;;;;;;11.35;9.40;;;20.60;99.90;;;;;;12520466;28;20052;-43
2021/09/15 16:08:07;;;;;;;9.18;8.00;;;20.90;99.90;;;;;;12520548;28;20061;-37
2021/09/15 16:14:10;;;;;;;8.13;7.10;;;21.30;99.90;;;;;;12521010;28;20053;-44
2021/09/15 16:20:12;;;;;;;9.23;7.10;;;21.60;99.90;;;;;;12527789;28;20060;-44
2021/09/15 16:26:16;;;;;;;8.82;6.82;;;21.70;99.90;;;;;;12531466;28;20048;-37
2021/09/15 16:32:19;;;;;;;8.88;6.40;;;21.50;99.90;;;;;;12528069;28;20490;-37
2021/09/15 16:38:21;;;;;;;8.73;7.18;;;21.40;99.90;;;;;;12528179;28;20148;-37
2021/09/15 16:44:23;;;;;;;10.30;7.82;;;21.10;99.90;;;;;;12529267;28;20494;-42
2021/09/15 16:50:25;;;;;;;9.40;7.72;;;20.80;99.90;;;;;;12526961;28;20051;-44
2021/09/15 16:56:28;;;;;;;9.27;7.78;;;20.50;99.90;;;;;;12529619;28;20078;-37
2021/09/15 17:02:29;;;;;;;10.80;8.68;;;20.50;99.90;;;;;;12527602;28;20071;-38
2021/09/15 17:08:31;;;;;;;14.10;9.80;;;20.20;99.90;;;;;;12529054;28;20053;-42
2021/09/15 17:14:33;;;;;;;12.40;10.25;;;19.80;99.90;;;;;;12523634;28;20060;-42
2021/09/15 17:20:36;;;;;;;12.68;10.63;;;19.40;99.90;;;;;;12525242;28;20057;-44
2021/09/15 17:26:39;;;;;;;13.55;11.88;;;19.30;99.90;;;;;;12529124;28;20505;-37
2021/09/15 17:32:41;;;;;;;13.35;10.77;;;19.30;99.90;;;;;;12525439;28;20049;-37
2021/09/15 17:38:45;;;;;;;12.68;11.00;;;19.20;99.90;;;;;;12527981;28;20104;-42
2021/09/15 17:44:47;;;;;;;15.40;12.38;;;19.10;99.90;;;;;;12523519;28;20102;-42
2021/09/15 17:50:50;;;;;;;16.17;12.38;;;19.00;99.90;;;;;;12526493;28;20045;-37
2021/09/15 17:56:52;;;;;;;13.02;11.02;;;18.90;99.90;;;;;;12526677;28;20048;-43
2021/09/15 18:02:55;;;;;;;13.15;11.80;;;18.90;99.90;;;;;;12518691;28;20148;-43
2021/09/15 18:08:58;;;;;;;16.30;13.32;;;18.90;99.90;;;;;;12525920;28;20076;-43
2021/09/15 18:15:00;;;;;;;16.85;14.48;;;18.90;99.90;;;;;;12523399;28;20045;-37
2021/09/15 18:21:02;;;;;;;19.45;15.52;;;19.20;99.90;;;;;;12522037;28;20048;-37
2021/09/15 18:27:05;;;;;;;24.88;18.73;;;19.20;99.90;;;;;;12520557;28;20122;-39
2021/09/15 18:33:07;;;;;;;25.30;19.60;;;19.30;99.90;;;;;;12516411;28;20053;-42
2021/09/15 18:39:09;;;;;;;36.75;24.95;;;19.10;99.90;;;;;;12516469;28;20041;-38
2021/09/15 18:45:12;;;;;;;33.05;25.55;;;19.00;99.90;;;;;;12505592;28;20148;-38
2021/09/15 18:51:15;;;;;;;39.28;28.00;;;19.00;99.90;;;;;;12517102;28;20524;-42
2021/09/15 18:57:16;;;;;;;39.17;27.23;;;18.90;99.90;;;;;;12516797;28;20048;-37
2021/09/15 19:03:19;;;;;;;38.75;27.52;;;18.90;99.90;;;;;;12517127;28;20509;-42
2021/09/15 19:09:20;;;;;;;38.05;26.90;;;18.80;99.90;;;;;;12516909;28;20136;-38
2021/09/15 19:15:23;;;;;;;41.95;29.88;;;18.80;99.90;;;;;;12518139;28;20064;-43
2021/09/15 19:21:26;;;;;;;39.87;28.87;;;18.80;99.90;;;;;;12519470;28;20056;-43
2021/09/15 19:27:28;;;;;;;44.40;30.60;;;18.80;99.90;;;;;;12518807;28;20049;-37
2021/09/15 19:33:30;;;;;;;41.05;27.02;;;18.70;99.90;;;;;;12519079;28;20053;-42
2021/09/15 19:39:32;;;;;;;35.17;25.67;;;18.70;99.90;;;;;;12519268;28;20048;-38
2021/09/15 19:45:34;;;;;;;34.08;22.33;;;18.70;99.90;;;;;;12520826;28;20053;-39
2021/09/15 19:51:36;;;;;;;27.63;19.63;;;18.60;99.90;;;;;;12520650;28;20057;-38
2021/09/15 19:57:37;;;;;;;30.17;20.10;;;18.50;99.90;;;;;;12512701;28;20688;-39
2021/09/15 20:03:39;;;;;;;24.52;17.83;;;18.50;99.90;;;;;;12526827;28;20281;-38
2021/09/15 20:09:42;;;;;;;22.95;17.77;;;18.30;99.90;;;;;;12527538;28;20068;-43
2021/09/15 20:15:44;;;;;;;25.93;16.37;;;18.20;99.90;;;;;;12526831;28;20501;-43
2021/09/15 20:21:49;;;;;;;23.70;18.05;;;18.10;99.90;;;;;;12522097;28;20099;-42
2021/09/15 20:27:52;;;;;;;27.10;19.00;;;17.90;99.90;;;;;;12532956;28;20723;-42
2021/09/15 20:33:53;;;;;;;26.08;18.67;;;18.00;99.90;;;;;;12524652;28;20048;-42
2021/09/15 20:39:55;;;;;;;22.60;17.75;;;17.90;99.90;;;;;;12527577;28;20535;-42
2021/09/15 20:45:57;;;;;;;24.50;18.25;;;18.00;99.90;;;;;;12524211;28;20186;-37
2021/09/15 20:52:01;;;;;;;27.30;19.00;;;17.90;99.90;;;;;;12526172;28;20074;-42
2021/09/15 20:58:03;;;;;;;27.55;17.95;;;17.90;99.90;;;;;;12524860;28;20048;-42
2021/09/15 21:04:05;;;;;;;23.52;17.45;;;17.80;99.90;;;;;;12524127;28;20056;-42
2021/09/15 21:10:08;;;;;;;30.13;17.50;;;17.80;99.90;;;;;;12524932;28;20107;-37
2021/09/15 21:16:10;;;;;;;25.13;18.03;;;17.80;99.90;;;;;;12525056;28;20049;-42
2021/09/15 21:22:12;;;;;;;23.70;18.23;;;17.80;99.90;;;;;;12523602;28;20040;-42
2021/09/15 21:28:14;;;;;;;24.40;16.90;;;17.80;99.90;;;;;;12527488;28;20188;-42
2021/09/15 21:34:16;;;;;;;21.73;15.02;;;17.60;99.90;;;;;;12525948;28;20407;-37
2021/09/15 21:40:17;;;;;;;22.25;15.07;;;17.60;99.90;;;;;;12520128;28;20041;-42
2021/09/15 21:46:19;;;;;;;22.45;15.55;;;17.80;99.90;;;;;;12526300;28;20098;-37
2021/09/15 21:52:21;;;;;;;22.92;15.57;;;17.70;99.90;;;;;;12505329;28;20118;-42
2021/09/15 21:58:23;;;;;;;21.58;15.70;;;17.60;99.90;;;;;;12523765;28;20094;-42
2021/09/15 22:04:25;;;;;;;22.50;14.25;;;17.50;99.90;;;;;;12524217;28;20048;-37
2021/09/15 22:10:27;;;;;;;16.60;12.63;;;17.50;99.90;;;;;;12509282;28;20488;-39
2021/09/15 22:16:29;;;;;;;15.07;11.82;;;17.60;99.90;;;;;;12523817;28;20103;-37
2021/09/15 22:22:30;;;;;;;18.30;12.80;;;17.40;99.90;;;;;;12524324;28;20502;-43
2021/09/15 22:28:32;;;;;;;18.75;12.98;;;17.40;99.90;;;;;;12522667;28;20159;-37
2021/09/15 22:34:34;;;;;;;20.70;13.40;;;17.40;99.90;;;;;;12522454;28;20053;-42
2021/09/15 22:40:36;;;;;;;18.85;11.43;;;17.50;99.90;;;;;;12524263;28;20078;-43
2021/09/15 22:46:38;;;;;;;17.02;9.18;;;17.50;99.90;;;;;;12519679;28;20106;-38
2021/09/15 22:52:40;;;;;;;11.63;7.43;;;17.40;99.90;;;;;;12525164;28;20048;-42
2021/09/15 22:58:42;;;;;;;10.43;5.60;;;17.40;99.90;;;;;;12515369;28;20048;-37
2021/09/15 23:04:44;;;;;;;8.70;4.15;;;17.30;99.90;;;;;;12520274;28;20061;-43
2021/09/15 23:10:45;;;;;;;9.80;3.50;;;17.30;99.90;;;;;;12516389;28;20037;-42
2021/09/15 23:16:47;;;;;;;6.95;2.95;;;17.20;99.90;;;;;;12520369;28;20158;-37
2021/09/15 23:22:49;;;;;;;5.95;3.10;;;17.10;99.90;;;;;;12517642;28;20049;-37
2021/09/15 23:28:51;;;;;;;9.63;3.33;;;17.20;99.90;;;;;;12511701;28;20049;-43
2021/09/15 23:34:53;;;;;;;7.93;2.88;;;17.10;99.90;;;;;;12512096;28;20049;-37
2021/09/15 23:40:55;;;;;;;8.85;2.17;;;17.10;99.90;;;;;;12514181;28;20456;-43
2021/09/15 23:46:57;;;;;;;8.63;2.58;;;16.90;99.90;;;;;;12511585;28;20049;-38
2021/09/15 23:53:00;;;;;;;9.02;2.35;;;16.80;99.90;;;;;;12513495;28;20049;-37
2021/09/15 23:59:03;;;;;;;9.15;2.22;;;16.80;99.90;;;;;;12509006;28;20056;-43
